Time;durP1;ratioP1;P1;durP2;ratioP2;P2;SDS_P1;SDS_P2;PMS_P1;PMS_P2;Temp;Humidity;BMP_temperature;BMP_pressure;BME280_temperature;BME280_humidity;BME280_pressure;Samples;Min_cycle;Max_cycle;Signal;HPM_P1;HPM_P2
2024/01/25 00:03:37;;;;;;;;;;;;;;;;;;8431450;28;20372;-83
2024/01/25 00:07:47;;;;;;;;;;;;;;;;;;8412518;28;19972;-83
2024/01/25 00:11:49;;;;;;;;;;;;;;;;;;8430835;28;19984;-83
2024/01/25 00:15:59;;;;;;;;;;;;;;;;;;8430722;28;19971;-84
2024/01/25 00:20:02;;;;;;;;;;;;;;;;;;8430665;28;19924;-83
2024/01/25 00:24:05;;;;;;;;;;;;;;;;;;8430533;28;20299;-84
2024/01/25 00:28:07;;;;;;;;;;;;;;;;;;8430431;28;19920;-82
2024/01/25 00:32:09;;;;;;;;;;;;;;;;;;8430543;28;20400;-83
2024/01/25 00:36:12;;;;;;;;;;;;;;;;;;8430350;28;20384;-82
2024/01/25 00:40:15;;;;;;;;;;;;;;;;;;8430514;28;20380;-83
2024/01/25 00:44:17;;;;;;;;;;;;;;;;;;8432955;28;19920;-83
2024/01/25 00:48:19;;;;;;;;;;;;;;;;;;8436704;28;19920;-82
2024/01/25 00:52:22;;;;;;;;;;;;;;;;;;8436598;28;20380;-83
2024/01/25 01:58:37;;;;;;;;;;;;;;;;;;8430321;28;19961;-83
2024/01/25 02:02:39;;;;;;;;;;;;;;;;;;8434754;28;19926;-83
2024/01/25 02:07:09;;;;;;;;;;;;;;;;;;8434300;28;19923;-83
2024/01/25 02:11:12;;;;;;;;;;;;;;;;;;8434090;28;19928;-83
2024/01/25 02:15:15;;;;;;;;;;;;;;;;;;8434245;28;19920;-83
2024/01/25 02:19:17;;;;;;;;;;;;;;;;;;8433498;28;19985;-83
2024/01/25 02:23:20;;;;;;;;;;;;;;;;;;8432916;28;19920;-83
2024/01/25 02:27:22;;;;;;;;;;;;;;;;;;8433418;28;19966;-82
2024/01/25 02:31:24;;;;;;;;;;;;;;;;;;8433493;28;19972;-83
2024/01/25 02:35:26;;;;;;;;;;;;;;;;;;8433298;28;20384;-82
2024/01/25 02:39:29;;;;;;;;;;;;;;;;;;8433126;28;19965;-83
2024/01/25 02:43:58;;;;;;;;;;;;;;;;;;8433432;28;19923;-83
2024/01/25 02:48:01;;;;;;;;;;;;;;;;;;8433069;28;19919;-82
2024/01/25 02:52:04;;;;;;;;;;;;;;;;;;8432978;28;20403;-83
2024/01/25 02:56:07;;;;;;;;;;;;;;;;;;8432682;28;20040;-84
2024/01/25 03:00:14;;;;;;;;;;;;;;;;;;8433106;28;19947;-83
2024/01/25 03:04:16;;;;;;;;;;;;;;;;;;8432626;28;19919;-82
2024/01/25 03:08:17;;;;;;;;;;;;;;;;;;8431962;28;19927;-83
2024/01/25 03:12:21;;;;;;;;;;;;;;;;;;8437458;28;20419;-82
2024/01/25 03:16:23;;;;;;;;;;;;;;;;;;8465790;28;20329;-82
2024/01/25 03:20:25;;;;;;;;;;;;;;;;;;8465548;28;19927;-82
2024/01/25 03:24:27;;;;;;;;;;;;;;;;;;8465183;28;19942;-82
2024/01/25 03:28:31;;;;;;;;;;;;;;;;;;8465616;28;19920;-83
2024/01/25 03:32:33;;;;;;;;;;;;;;;;;;8465855;28;20294;-83
2024/01/25 03:36:36;;;;;;;;;;;;;;;;;;8465715;28;19919;-83
2024/01/25 03:40:38;;;;;;;;;;;;;;;;;;8465071;28;19920;-83
2024/01/25 03:49:35;;;;;;;;;;;;;;;;;;8448420;28;19957;-83
2024/01/25 03:53:37;;;;;;;;;;;;;;;;;;8464693;28;19931;-83
2024/01/25 03:57:40;;;;;;;;;;;;;;;;;;8464694;28;20383;-83
2024/01/25 04:01:43;;;;;;;;;;;;;;;;;;8433470;28;19955;-83
2024/01/25 04:05:46;;;;;;;;;;;;;;;;;;8430803;28;19920;-82
2024/01/25 04:09:50;;;;;;;;;;;;;;;;;;8430783;28;20018;-83
2024/01/25 04:13:52;;;;;;;;;;;;;;;;;;8430740;28;19924;-83
2024/01/25 04:17:55;;;;;;;;;;;;;;;;;;8431146;28;20015;-83
2024/01/25 04:21:59;;;;;;;;;;;;;;;;;;8437560;28;19955;-82
2024/01/25 04:26:01;;;;;;;;;;;;;;;;;;8437771;28;20334;-83
2024/01/25 04:30:04;;;;;;;;;;;;;;;;;;8437477;28;20299;-83
2024/01/25 04:34:06;;;;;;;;;;;;;;;;;;8437278;28;19927;-84
2024/01/25 04:38:09;;;;;;;;;;;;;;;;;;8437036;28;19920;-84
2024/01/25 04:42:11;;;;;;;;;;;;;;;;;;8437026;28;19920;-83
2024/01/25 04:46:13;;;;;;;;;;;;;;;;;;8436944;28;19999;-83
2024/01/25 04:50:15;;;;;;;;;;;;;;;;;;8436978;28;19920;-84
2024/01/25 04:54:41;;;;;;;;;;;;;;;;;;8436358;28;20376;-84
2024/01/25 04:58:44;;;;;;;;;;;;;;;;;;8436347;28;19928;-82
2024/01/25 05:02:46;;;;;;;;;;;;;;;;;;8436269;28;19927;-83
2024/01/25 05:06:47;;;;;;;;;;;;;;;;;;8436050;28;19920;-83
2024/01/25 05:10:49;;;;;;;;;;;;;;;;;;8435055;28;19926;-83
2024/01/25 05:14:53;;;;;;;;;;;;;;;;;;8435442;28;19951;-83
2024/01/25 05:18:55;;;;;;;;;;;;;;;;;;8435617;28;20027;-82
2024/01/25 05:22:56;;;;;;;;;;;;;;;;;;8434752;28;20393;-82
2024/01/25 05:26:58;;;;;;;;;;;;;;;;;;8435448;28;20691;-83
2024/01/25 05:31:01;;;;;;;;;;;;;;;;;;8434926;28;19920;-82
2024/01/25 05:35:04;;;;;;;;;;;;;;;;;;8436152;28;20031;-84
2024/01/25 05:39:07;;;;;;;;;;;;;;;;;;8435198;28;19923;-83
2024/01/25 05:43:10;;;;;;;;;;;;;;;;;;8435355;28;20427;-84
2024/01/25 05:47:13;;;;;;;;;;;;;;;;;;8434949;28;20402;-84
2024/01/25 05:51:15;;;;;;;;;;;;;;;;;;8435298;28;19989;-84
2024/01/25 05:55:17;;;;;;;;;;;;;;;;;;8434708;28;20010;-84
2024/01/25 05:59:19;;;;;;;;;;;;;;;;;;8434135;28;19954;-83
2024/01/25 06:03:22;;;;;;;;;;;;;;;;;;8434407;28;20011;-84
2024/01/25 06:07:24;;;;;;;;;;;;;;;;;;8434327;28;20268;-83
2024/01/25 06:11:26;;;;;;;;;;;;;;;;;;8434278;28;19955;-84
2024/01/25 06:15:28;;;;;;;;;;;;;;;;;;8434402;28;19974;-84
2024/01/25 06:19:32;;;;;;;;;;;;;;;;;;8433888;28;19973;-84
2024/01/25 06:23:34;;;;;;;;;;;;;;;;;;8433865;28;19923;-83
2024/01/25 06:28:03;;;;;;;;;;;;;;;;;;8433935;28;19920;-84
2024/01/25 06:32:06;;;;;;;;;;;;;;;;;;8433514;28;19959;-84
2024/01/25 06:36:09;;;;;;;;;;;;;;;;;;8433456;28;20273;-83
2024/01/25 06:40:12;;;;;;;;;;;;;;;;;;8432434;28;20014;-84
2024/01/25 06:44:13;;;;;;;;;;;;;;;;;;8432878;28;20023;-84
2024/01/25 06:48:15;;;;;;;;;;;;;;;;;;8432037;28;19920;-83
2024/01/25 06:52:20;;;;;;;;;;;;;;;;;;8428834;28;19920;-83
2024/01/25 06:56:22;;;;;;;;;;;;;;;;;;8432674;28;19920;-83
2024/01/25 07:00:27;;;;;;;;;;;;;;;;;;8432611;28;19924;-83
2024/01/25 07:04:29;;;;;;;;;;;;;;;;;;8432821;28;20366;-83
2024/01/25 07:08:51;;;;;;;;;;;;;;;;;;8432283;28;19919;-80
2024/01/25 07:12:54;;;;;;;;;;;;;;;;;;8432502;28;19942;-81
2024/01/25 07:21:53;;;;;;;;;;;;;;;;;;8432061;28;20033;-83
2024/01/25 07:25:54;;;;;;;;;;;;;;;;;;8432107;28;20307;-83
2024/01/25 07:29:58;;;;;;;;;;;;;;;;;;8431791;28;19927;-81
2024/01/25 07:34:00;;;;;;;;;;;;;;;;;;8431639;28;20035;-81
2024/01/25 07:38:05;;;;;;;;;;;;;;;;;;8431518;28;19963;-81
2024/01/25 07:42:07;;;;;;;;;;;;;;;;;;8431011;28;19920;-81
2024/01/25 07:46:10;;;;;;;;;;;;;;;;;;8429732;28;19920;-81
2024/01/25 07:50:12;;;;;;;;;;;;;;;;;;8427775;28;19920;-81
2024/01/25 07:54:15;;;;;;;;;;;;;;;;;;8430118;28;19931;-81
2024/01/25 07:58:17;;;;;;;;;;;;;;;;;;8430403;28;19920;-81
2024/01/25 08:02:20;;;;;;;;;;;;;;;;;;8430850;28;20074;-81
2024/01/25 08:06:22;;;;;;;;;;;;;;;;;;8430951;28;20010;-81
2024/01/25 08:10:24;;;;;;;;;;;;;;;;;;8431860;28;20387;-82
2024/01/25 08:14:26;;;;;;;;;;;;;;;;;;8431363;28;20383;-80
2024/01/25 08:18:30;;;;;;;;;;;;;;;;;;8430790;28;19919;-80
2024/01/25 08:22:31;;;;;;;;;;;;;;;;;;8430786;28;19947;-81
2024/01/25 08:26:34;;;;;;;;;;;;;;;;;;8430957;28;19920;-80
2024/01/25 08:31:07;;;;;;;;;;;;;;;;;;8430567;28;19969;-81
2024/01/25 08:35:10;;;;;;;;;;;;;;;;;;8431215;28;19920;-80
2024/01/25 08:39:12;;;;;;;;;;;;;;;;;;8430720;28;19927;-80
2024/01/25 08:43:14;;;;;;;;;;;;;;;;;;8430650;28;19920;-80
2024/01/25 08:47:17;;;;;;;;;;;;;;;;;;8430506;28;19920;-80
2024/01/25 08:51:21;;;;;;;;;;;;;;;;;;8430349;28;19920;-80
2024/01/25 08:55:23;;;;;;;;;;;;;;;;;;8430052;28;19926;-81
2024/01/25 08:59:25;;;;;;;;;;;;;;;;;;8430803;28;19927;-80
2024/01/25 09:03:27;;;;;;;;;;;;;;;;;;8430064;28;19920;-81
2024/01/25 09:07:30;;;;;;;;;;;;;;;;;;8435956;28;20299;-80
2024/01/25 09:11:32;;;;;;;;;;;;;;;;;;8418020;28;19924;-81
2024/01/25 09:15:34;;;;;;;;;;;;;;;;;;8435968;28;19955;-81
2024/01/25 09:19:36;;;;;;;;;;;;;;;;;;8436227;28;19924;-81
2024/01/25 09:23:40;;;;;;;;;;;;;;;;;;8435808;28;19920;-81
2024/01/25 09:27:41;;;;;;;;;;;;;;;;;;8435605;28;19920;-80
2024/01/25 09:31:43;;;;;;;;;;;;;;;;;;8435532;28;19920;-80
2024/01/25 09:35:48;;;;;;;;;;;;;;;;;;8435375;28;20292;-80
2024/01/25 09:39:52;;;;;;;;;;;;;;;;;;8434981;28;20386;-80
2024/01/25 09:43:54;;;;;;;;;;;;;;;;;;8434993;28;19966;-80
2024/01/25 09:47:56;;;;;;;;;;;;;;;;;;8434880;28;19924;-80
2024/01/25 09:51:58;;;;;;;;;;;;;;;;;;8417331;28;20391;-80
2024/01/25 09:56:04;;;;;;;;;;;;;;;;;;8434655;28;20372;-79
2024/01/25 10:00:11;;;;;;;;;;;;;;;;;;8434307;28;20023;-80
2024/01/25 10:04:13;;;;;;;;;;;;;;;;;;8434469;28;19928;-80
2024/01/25 10:08:15;;;;;;;;;;;;;;;;;;8434307;28;20007;-80
2024/01/25 10:12:18;;;;;;;;;;;;;;;;;;8435352;28;20346;-80
2024/01/25 10:16:20;;;;;;;;;;;;;;;;;;8433886;28;20443;-82
2024/01/25 10:20:26;;;;;;;;;;;;;;;;;;8433905;28;19977;-80
2024/01/25 10:24:28;;;;;;;;;;;;;;;;;;8433772;28;19966;-79
2024/01/25 10:28:32;;;;;;;;;;;;;;;;;;8431422;28;19924;-79
2024/01/25 10:32:34;;;;;;;;;;;;;;;;;;8431263;28;19985;-79
2024/01/25 10:36:38;;;;;;;;;;;;;;;;;;8432453;28;20410;-79
2024/01/25 10:40:41;;;;;;;;;;;;;;;;;;8431369;28;19924;-80
2024/01/25 10:44:47;;;;;;;;;;;;;;;;;;8430094;28;20398;-82
2024/01/25 10:48:50;;;;;;;;;;;;;;;;;;8429530;28;20205;-81
2024/01/25 10:52:52;;;;;;;;;;;;;;;;;;8430744;28;20390;-81
2024/01/25 10:56:55;;;;;;;;;;;;;;;;;;8432375;28;19923;-81
2024/01/25 11:01:00;;;;;;;;;;;;;;;;;;8430702;28;20744;-81
2024/01/25 11:05:10;;;;;;;;;;;;;;;;;;8431169;28;19928;-82
2024/01/25 11:09:17;;;;;;;;;;;;;;;;;;8430655;28;19927;-84
2024/01/25 11:13:24;;;;;;;;;;;;;;;;;;8430360;28;19920;-83
2024/01/25 11:17:32;;;;;;;;;;;;;;;;;;8430572;28;19927;-84
2024/01/25 11:21:41;;;;;;;;;;;;;;;;;;8430504;28;20014;-82
2024/01/25 11:25:45;;;;;;;;;;;;;;;;;;8430551;28;19963;-83
2024/01/25 11:29:47;;;;;;;;;;;;;;;;;;8428929;28;20338;-82
2024/01/25 11:33:51;;;;;;;;;;;;;;;;;;8431124;28;19920;-82
2024/01/25 11:37:53;;;;;;;;;;;;;;;;;;8430170;28;19920;-82
2024/01/25 11:41:55;;;;;;;;;;;;;;;;;;8430040;28;19931;-83
2024/01/25 11:45:58;;;;;;;;;;;;;;;;;;8429511;28;20300;-82
2024/01/25 11:50:02;;;;;;;;;;;;;;;;;;8430138;28;20300;-81
2024/01/25 11:54:06;;;;;;;;;;;;;;;;;;8429751;28;19926;-82
2024/01/25 11:58:08;;;;;;;;;;;;;;;;;;8429970;28;19920;-81
2024/01/25 12:02:10;;;;;;;;;;;;;;;;;;8430153;28;19931;-79
2024/01/25 12:06:13;;;;;;;;;;;;;;;;;;8429272;28;20388;-79
2024/01/25 12:10:16;;;;;;;;;;;;;;;;;;8429446;28;20370;-79
2024/01/25 12:14:18;;;;;;;;;;;;;;;;;;8430436;28;20019;-79
2024/01/25 12:18:21;;;;;;;;;;;;;;;;;;8430172;28;20017;-80
2024/01/25 12:22:25;;;;;;;;;;;;;;;;;;8429850;28;19973;-82
2024/01/25 12:26:27;;;;;;;;;;;;;;;;;;8430096;28;19970;-80
2024/01/25 12:30:29;;;;;;;;;;;;;;;;;;8429748;28;19920;-80
2024/01/25 12:34:30;;;;;;;;;;;;;;;;;;8429825;28;19924;-80
2024/01/25 12:38:34;;;;;;;;;;;;;;;;;;8429676;28;20023;-80
2024/01/25 12:42:36;;;;;;;;;;;;;;;;;;8436338;28;20074;-80
2024/01/25 12:46:38;;;;;;;;;;;;;;;;;;8435849;28;19963;-80
2024/01/25 12:50:40;;;;;;;;;;;;;;;;;;8435884;28;19920;-80
2024/01/25 12:54:44;;;;;;;;;;;;;;;;;;8435370;28;20460;-83
2024/01/25 12:58:46;;;;;;;;;;;;;;;;;;8435713;28;20287;-80
2024/01/25 13:02:48;;;;;;;;;;;;;;;;;;8435443;28;19920;-80
2024/01/25 13:06:50;;;;;;;;;;;;;;;;;;8434145;28;20345;-81
2024/01/25 13:10:53;;;;;;;;;;;;;;;;;;8434682;28;19949;-81
2024/01/25 13:14:55;;;;;;;;;;;;;;;;;;8435671;28;20007;-81
2024/01/25 13:18:57;;;;;;;;;;;;;;;;;;8435797;28;19928;-82
2024/01/25 13:22:59;;;;;;;;;;;;;;;;;;8434661;28;20018;-81
2024/01/25 13:31:59;;;;;;;;;;;;;;;;;;8435139;28;19954;-80
2024/01/25 13:36:01;;;;;;;;;;;;;;;;;;8433695;28;19924;-80
2024/01/25 13:40:04;;;;;;;;;;;;;;;;;;8432646;28;19927;-80
2024/01/25 13:44:06;;;;;;;;;;;;;;;;;;8433000;28;19973;-82
2024/01/25 13:48:09;;;;;;;;;;;;;;;;;;8434035;28;20019;-80
2024/01/25 13:52:17;;;;;;;;;;;;;;;;;;8434645;28;19973;-79
2024/01/25 13:56:19;;;;;;;;;;;;;;;;;;8434732;28;19924;-79
2024/01/25 14:00:22;;;;;;;;;;;;;;;;;;8433739;28;19920;-81
2024/01/25 14:04:25;;;;;;;;;;;;;;;;;;8433724;28;19935;-81
2024/01/25 14:08:51;;;;;;;;;;;;;;;;;;8434342;28;20069;-85
2024/01/25 14:12:53;;;;;;;;;;;;;;;;;;8433868;28;19927;-83
2024/01/25 14:16:57;;;;;;;;;;;;;;;;;;8433782;28;19920;-84
2024/01/25 14:21:00;;;;;;;;;;;;;;;;;;8433860;28;19970;-83
2024/01/25 14:25:02;;;;;;;;;;;;;;;;;;8434118;28;19963;-83
2024/01/25 14:29:04;;;;;;;;;;;;;;;;;;8434044;28;19920;-84
2024/01/25 14:33:06;;;;;;;;;;;;;;;;;;8433812;28;20011;-84
2024/01/25 14:37:09;;;;;;;;;;;;;;;;;;8433159;28;20007;-88
2024/01/25 14:41:11;;;;;;;;;;;;;;;;;;8433065;28;19920;-88
2024/01/25 14:45:13;;;;;;;;;;;;;;;;;;8433064;28;19920;-87
2024/01/25 14:49:16;;;;;;;;;;;;;;;;;;8433354;28;19920;-86
2024/01/25 14:53:20;;;;;;;;;;;;;;;;;;8433169;28;20338;-87
2024/01/25 14:57:22;;;;;;;;;;;;;;;;;;8433197;28;20388;-87
2024/01/25 15:01:28;;;;;;;;;;;;;;;;;;8432015;28;19920;-87
2024/01/25 15:05:31;;;;;;;;;;;;;;;;;;8432397;28;20281;-87
2024/01/25 15:09:34;;;;;;;;;;;;;;;;;;8432482;28;19920;-87
2024/01/25 15:13:36;;;;;;;;;;;;;;;;;;8432315;28;20011;-86
2024/01/25 15:17:37;;;;;;;;;;;;;;;;;;8413930;28;19924;-85
2024/01/25 15:21:39;;;;;;;;;;;;;;;;;;8432022;28;20295;-85
2024/01/25 15:25:42;;;;;;;;;;;;;;;;;;8431875;28;19920;-85
2024/01/25 15:29:44;;;;;;;;;;;;;;;;;;8430837;28;19920;-85
2024/01/25 15:33:46;;;;;;;;;;;;;;;;;;8431643;28;19920;-86
2024/01/25 15:37:48;;;;;;;;;;;;;;;;;;8431317;28;20042;-86
2024/01/25 15:41:53;;;;;;;;;;;;;;;;;;8431093;28;19994;-85
2024/01/25 15:46:01;;;;;;;;;;;;;;;;;;8430781;28;19931;-85
2024/01/25 15:50:05;;;;;;;;;;;;;;;;;;8430740;28;19920;-86
2024/01/25 15:54:07;;;;;;;;;;;;;;;;;;8429927;28;20010;-86
2024/01/25 15:58:10;;;;;;;;;;;;;;;;;;8430576;28;19920;-85
2024/01/25 16:02:12;;;;;;;;;;;;;;;;;;8430141;28;19924;-84
2024/01/25 16:06:14;;;;;;;;;;;;;;;;;;8430092;28;20015;-85
2024/01/25 16:10:17;;;;;;;;;;;;;;;;;;8430223;28;19928;-85
2024/01/25 16:14:20;;;;;;;;;;;;;;;;;;8434214;28;19930;-85
2024/01/25 16:18:22;;;;;;;;;;;;;;;;;;8438169;28;20312;-85
2024/01/25 16:22:24;;;;;;;;;;;;;;;;;;8440964;28;19925;-85
2024/01/25 16:26:25;;;;;;;;;;;;;;;;;;8422976;28;20347;-86
2024/01/25 16:30:28;;;;;;;;;;;;;;;;;;8440560;28;20403;-85
2024/01/25 16:34:30;;;;;;;;;;;;;;;;;;8439343;28;19927;-84
2024/01/25 16:38:32;;;;;;;;;;;;;;;;;;8438009;28;19924;-85
2024/01/25 16:42:35;;;;;;;;;;;;;;;;;;8440251;28;19923;-85
2024/01/25 16:46:39;;;;;;;;;;;;;;;;;;8440577;28;19963;-84
2024/01/25 16:50:40;;;;;;;;;;;;;;;;;;8422959;28;19920;-84
2024/01/25 16:54:43;;;;;;;;;;;;;;;;;;8441153;28;19958;-84
2024/01/25 16:58:45;;;;;;;;;;;;;;;;;;8440173;27;19920;-84
2024/01/25 17:02:48;;;;;;;;;;;;;;;;;;8439973;28;20748;-85
2024/01/25 17:06:52;;;;;;;;;;;;;;;;;;8440796;28;19931;-85
2024/01/25 17:10:54;;;;;;;;;;;;;;;;;;8440360;28;19927;-85
2024/01/25 17:14:56;;;;;;;;;;;;;;;;;;8438725;28;19920;-84
2024/01/25 17:18:59;;;;;;;;;;;;;;;;;;8439381;28;20701;-84
2024/01/25 17:23:10;;;;;;;;;;;;;;;;;;8440834;28;19920;-84
2024/01/25 17:27:12;;;;;;;;;;;;;;;;;;8435106;28;19929;-84
2024/01/25 17:31:29;;;;;;;;;;;;;;;;;;8435129;28;20335;-85
2024/01/25 17:35:33;;;;;;;;;;;;;;;;;;8435162;28;19927;-84
2024/01/25 17:39:35;;;;;;;;;;;;;;;;;;8435220;28;19962;-84
2024/01/25 17:43:36;;;;;;;;;;;;;;;;;;8415479;28;20011;-84
2024/01/25 17:47:38;;;;;;;;;;;;;;;;;;8434303;28;19920;-83
2024/01/25 17:51:42;;;;;;;;;;;;;;;;;;8434638;28;19965;-82
2024/01/25 17:55:44;;;;;;;;;;;;;;;;;;8433940;28;20424;-84
2024/01/25 17:59:45;;;;;;;;;;;;;;;;;;8434058;28;19920;-83
2024/01/25 18:03:47;;;;;;;;;;;;;;;;;;8434374;28;19927;-82
2024/01/25 18:07:52;;;;;;;;;;;;;;;;;;8434729;28;20015;-83
2024/01/25 18:11:54;;;;;;;;;;;;;;;;;;8434379;28;19959;-83
2024/01/25 18:15:55;;;;;;;;;;;;;;;;;;8432491;28;19982;-83
2024/01/25 18:19:57;;;;;;;;;;;;;;;;;;8433461;28;20371;-83
2024/01/25 18:24:03;;;;;;;;;;;;;;;;;;8433967;28;20299;-83
2024/01/25 18:28:05;;;;;;;;;;;;;;;;;;8433631;28;19927;-83
2024/01/25 18:32:08;;;;;;;;;;;;;;;;;;8433857;28;19920;-82
2024/01/25 18:36:11;;;;;;;;;;;;;;;;;;8432940;28;19920;-82
2024/01/25 18:40:15;;;;;;;;;;;;;;;;;;8432753;28;19920;-82
2024/01/25 18:44:17;;;;;;;;;;;;;;;;;;8432458;28;19920;-82
2024/01/25 18:48:18;;;;;;;;;;;;;;;;;;8415600;28;19949;-82
2024/01/25 18:52:20;;;;;;;;;;;;;;;;;;8432827;28;20011;-82
2024/01/25 18:56:24;;;;;;;;;;;;;;;;;;8432291;28;20019;-83
2024/01/25 19:00:26;;;;;;;;;;;;;;;;;;8431228;28;19924;-82
2024/01/25 19:04:28;;;;;;;;;;;;;;;;;;8431810;28;19920;-82
2024/01/25 19:08:30;;;;;;;;;;;;;;;;;;8432790;28;19924;-83
2024/01/25 19:12:34;;;;;;;;;;;;;;;;;;8432306;28;19927;-83
2024/01/25 19:16:36;;;;;;;;;;;;;;;;;;8432109;28;19990;-83
2024/01/25 19:20:40;;;;;;;;;;;;;;;;;;8431986;28;19920;-84
2024/01/25 19:24:42;;;;;;;;;;;;;;;;;;8431876;28;20284;-83
2024/01/25 19:28:45;;;;;;;;;;;;;;;;;;8431406;28;19920;-81
2024/01/25 19:32:46;;;;;;;;;;;;;;;;;;8413039;28;19920;-79
2024/01/25 19:36:49;;;;;;;;;;;;;;;;;;8432015;28;20388;-79
2024/01/25 19:40:51;;;;;;;;;;;;;;;;;;8431499;28;19924;-81
2024/01/25 19:44:54;;;;;;;;;;;;;;;;;;8431514;28;20003;-81
2024/01/25 19:48:56;;;;;;;;;;;;;;;;;;8430820;28;20536;-81
2024/01/25 19:53:12;;;;;;;;;;;;;;;;;;8431725;28;20330;-80
2024/01/25 19:57:14;;;;;;;;;;;;;;;;;;8431255;28;19920;-81
2024/01/25 20:01:18;;;;;;;;;;;;;;;;;;8431391;28;19920;-81
2024/01/25 20:05:20;;;;;;;;;;;;;;;;;;8431099;28;20376;-81
2024/01/25 20:09:22;;;;;;;;;;;;;;;;;;8413365;28;20336;-81
2024/01/25 20:13:24;;;;;;;;;;;;;;;;;;8430606;28;20014;-81
2024/01/25 20:17:27;;;;;;;;;;;;;;;;;;8430704;28;20006;-81
2024/01/25 20:21:29;;;;;;;;;;;;;;;;;;8430563;28;19966;-83
2024/01/25 20:25:31;;;;;;;;;;;;;;;;;;8430779;28;19923;-83
2024/01/25 20:29:33;;;;;;;;;;;;;;;;;;8430572;28;20010;-84
2024/01/25 20:33:36;;;;;;;;;;;;;;;;;;8409328;28;20048;-82
2024/01/25 20:37:38;;;;;;;;;;;;;;;;;;8426898;28;20350;-82
2024/01/25 20:41:40;;;;;;;;;;;;;;;;;;8426601;28;19924;-83
2024/01/25 20:45:42;;;;;;;;;;;;;;;;;;8428652;28;20014;-84
2024/01/25 20:49:45;;;;;;;;;;;;;;;;;;8430511;28;19924;-83
2024/01/25 20:53:47;;;;;;;;;;;;;;;;;;8430454;28;19920;-84
2024/01/25 20:57:51;;;;;;;;;;;;;;;;;;8430375;28;19963;-83
2024/01/25 21:01:53;;;;;;;;;;;;;;;;;;8433917;28;20010;-82
2024/01/25 21:05:57;;;;;;;;;;;;;;;;;;8436493;28;20410;-84
2024/01/25 21:09:59;;;;;;;;;;;;;;;;;;8436298;28;20403;-81
2024/01/25 21:14:02;;;;;;;;;;;;;;;;;;8436182;28;20407;-81
2024/01/25 21:18:04;;;;;;;;;;;;;;;;;;8436029;28;20308;-81
2024/01/25 21:22:07;;;;;;;;;;;;;;;;;;8435768;28;20343;-80
2024/01/25 21:26:09;;;;;;;;;;;;;;;;;;8435798;28;19959;-80
2024/01/25 21:30:12;;;;;;;;;;;;;;;;;;8435733;28;19963;-81
2024/01/25 21:34:15;;;;;;;;;;;;;;;;;;8435718;28;19920;-81
2024/01/25 21:38:18;;;;;;;;;;;;;;;;;;8435319;28;19926;-82
2024/01/25 21:42:41;;;;;;;;;;;;;;;;;;8435303;28;19969;-84
2024/01/25 21:46:43;;;;;;;;;;;;;;;;;;8429088;28;19980;-83
2024/01/25 21:50:45;;;;;;;;;;;;;;;;;;8435018;28;19920;-83
2024/01/25 21:54:55;;;;;;;;;;;;;;;;;;8435279;28;19974;-83
2024/01/25 21:58:56;;;;;;;;;;;;;;;;;;8434634;28;20010;-84
2024/01/25 22:02:58;;;;;;;;;;;;;;;;;;8434903;28;19920;-84
2024/01/25 22:07:00;;;;;;;;;;;;;;;;;;8434526;28;19970;-83
2024/01/25 22:11:04;;;;;;;;;;;;;;;;;;8434359;28;19919;-85
2024/01/25 22:15:06;;;;;;;;;;;;;;;;;;8434282;28;19969;-84
2024/01/25 22:19:08;;;;;;;;;;;;;;;;;;8433679;28;20456;-83
2024/01/25 22:23:10;;;;;;;;;;;;;;;;;;8433507;28;19919;-84
2024/01/25 22:27:13;;;;;;;;;;;;;;;;;;8433994;28;19923;-85
2024/01/25 22:31:15;;;;;;;;;;;;;;;;;;8433862;28;19920;-84
2024/01/25 22:35:17;;;;;;;;;;;;;;;;;;8433613;28;19920;-84
2024/01/25 22:39:19;;;;;;;;;;;;;;;;;;8433795;28;19977;-83
2024/01/25 22:43:23;;;;;;;;;;;;;;;;;;8433612;28;19920;-83
2024/01/25 22:47:25;;;;;;;;;;;;;;;;;;8433613;28;19953;-84
2024/01/25 22:51:27;;;;;;;;;;;;;;;;;;8433068;28;19966;-84
2024/01/25 22:55:29;;;;;;;;;;;;;;;;;;8432991;28;20277;-85
2024/01/25 22:59:32;;;;;;;;;;;;;;;;;;8435265;28;19920;-84
2024/01/25 23:03:34;;;;;;;;;;;;;;;;;;8432635;28;20375;-85
2024/01/25 23:07:40;;;;;;;;;;;;;;;;;;8432581;28;19965;-85
2024/01/25 23:11:42;;;;;;;;;;;;;;;;;;8432482;28;19977;-85
2024/01/25 23:15:45;;;;;;;;;;;;;;;;;;8432354;28;19959;-85
2024/01/25 23:19:51;;;;;;;;;;;;;;;;;;8432433;28;19920;-85
2024/01/25 23:23:53;;;;;;;;;;;;;;;;;;8431509;28;20042;-85
2024/01/25 23:27:57;;;;;;;;;;;;;;;;;;8431840;28;19990;-85
2024/01/25 23:32:00;;;;;;;;;;;;;;;;;;8431842;28;20406;-85
2024/01/25 23:36:05;;;;;;;;;;;;;;;;;;8431703;28;19959;-85
2024/01/25 23:40:07;;;;;;;;;;;;;;;;;;8431504;28;19923;-85
2024/01/25 23:44:09;;;;;;;;;;;;;;;;;;8431342;28;20304;-85
2024/01/25 23:48:12;;;;;;;;;;;;;;;;;;8431518;28;20388;-85
2024/01/25 23:52:14;;;;;;;;;;;;;;;;;;8431681;28;19927;-85
2024/01/25 23:56:16;;;;;;;;;;;;;;;;;;8431342;28;20007;-85
